sensor_id;sensor_type;location;lat;lon;timestamp;temperature;humidity
55642;DHT22;41509;53.108;6.100;2023-03-05T00:00:12;4.00;99.90
55642;DHT22;41509;53.108;6.100;2023-03-05T00:02:39;4.00;99.90
55642;DHT22;41509;53.108;6.100;2023-03-05T00:05:05;4.00;99.90
55642;DHT22;41509;53.108;6.100;2023-03-05T00:07:31;4.00;99.90
55642;DHT22;41509;53.108;6.100;2023-03-05T00:10:03;4.00;99.90
55642;DHT22;41509;53.108;6.100;2023-03-05T00:12:29;4.00;99.90
55642;DHT22;41509;53.108;6.100;2023-03-05T00:14:55;4.00;99.90
55642;DHT22;41509;53.108;6.100;2023-03-05T00:17:21;4.00;99.90
55642;DHT22;41509;53.108;6.100;2023-03-05T00:19:46;4.00;99.90
55642;DHT22;41509;53.108;6.100;2023-03-05T00:22:12;4.00;99.90
55642;DHT22;41509;53.108;6.100;2023-03-05T00:24:37;4.00;99.90
55642;DHT22;41509;53.108;6.100;2023-03-05T00:27:03;4.00;99.90
55642;DHT22;41509;53.108;6.100;2023-03-05T00:29:29;4.00;99.90
55642;DHT22;41509;53.108;6.100;2023-03-05T00:31:55;4.10;99.90
55642;DHT22;41509;53.108;6.100;2023-03-05T00:34:21;4.00;99.90
55642;DHT22;41509;53.108;6.100;2023-03-05T00:36:48;4.00;99.90
55642;DHT22;41509;53.108;6.100;2023-03-05T00:39:15;4.00;99.90
55642;DHT22;41509;53.108;6.100;2023-03-05T00:41:42;4.00;99.90
55642;DHT22;41509;53.108;6.100;2023-03-05T00:44:08;4.10;99.90
55642;DHT22;41509;53.108;6.100;2023-03-05T00:46:34;4.00;99.90
55642;DHT22;41509;53.108;6.100;2023-03-05T00:49:00;4.00;99.90
55642;DHT22;41509;53.108;6.100;2023-03-05T00:51:26;4.00;99.90
55642;DHT22;41509;53.108;6.100;2023-03-05T00:53:52;4.00;99.90
55642;DHT22;41509;53.108;6.100;2023-03-05T00:56:17;3.90;99.90
55642;DHT22;41509;53.108;6.100;2023-03-05T00:58:43;4.00;99.90
55642;DHT22;41509;53.108;6.100;2023-03-05T01:01:09;3.90;99.90
55642;DHT22;41509;53.108;6.100;2023-03-05T01:03:35;3.90;99.90
55642;DHT22;41509;53.108;6.100;2023-03-05T01:06:09;3.90;99.90
55642;DHT22;41509;53.108;6.100;2023-03-05T01:08:35;3.80;99.90
55642;DHT22;41509;53.108;6.100;2023-03-05T01:11:02;3.80;99.90
55642;DHT22;41509;53.108;6.100;2023-03-05T01:13:28;3.80;99.90
55642;DHT22;41509;53.108;6.100;2023-03-05T01:15:54;3.80;99.90
55642;DHT22;41509;53.108;6.100;2023-03-05T01:18:20;3.80;99.90
55642;DHT22;41509;53.108;6.100;2023-03-05T01:20:46;3.80;99.90
55642;DHT22;41509;53.108;6.100;2023-03-05T01:23:12;3.70;99.90
55642;DHT22;41509;53.108;6.100;2023-03-05T01:25:38;3.70;99.90
55642;DHT22;41509;53.108;6.100;2023-03-05T01:28:04;3.70;99.90
55642;DHT22;41509;53.108;6.100;2023-03-05T01:30:30;3.80;99.90
55642;DHT22;41509;53.108;6.100;2023-03-05T01:32:55;3.70;99.90
55642;DHT22;41509;53.108;6.100;2023-03-05T01:35:23;3.70;99.90
55642;DHT22;41509;53.108;6.100;2023-03-05T01:37:49;3.70;99.90
55642;DHT22;41509;53.108;6.100;2023-03-05T01:40:22;3.70;99.90
55642;DHT22;41509;53.108;6.100;2023-03-05T01:43:07;3.60;99.90
55642;DHT22;41509;53.108;6.100;2023-03-05T01:46:10;3.60;99.90
55642;DHT22;41509;53.108;6.100;2023-03-05T01:48:24;3.60;99.90
55642;DHT22;41509;53.108;6.100;2023-03-05T01:50:50;3.50;99.90
55642;DHT22;41509;53.108;6.100;2023-03-05T01:53:16;3.50;99.90
55642;DHT22;41509;53.108;6.100;2023-03-05T01:55:42;3.50;99.90
55642;DHT22;41509;53.108;6.100;2023-03-05T01:58:11;3.50;99.90
55642;DHT22;41509;53.108;6.100;2023-03-05T02:00:42;3.50;99.90
55642;DHT22;41509;53.108;6.100;2023-03-05T02:03:11;3.50;99.90
55642;DHT22;41509;53.108;6.100;2023-03-05T02:05:39;3.50;99.90
55642;DHT22;41509;53.108;6.100;2023-03-05T02:08:10;3.60;99.90
55642;DHT22;41509;53.108;6.100;2023-03-05T02:13:09;3.60;99.90
55642;DHT22;41509;53.108;6.100;2023-03-05T02:15:37;3.60;99.90
55642;DHT22;41509;53.108;6.100;2023-03-05T02:18:03;3.60;99.90
55642;DHT22;41509;53.108;6.100;2023-03-05T02:20:42;3.60;99.90
55642;DHT22;41509;53.108;6.100;2023-03-05T02:23:08;3.60;99.90
55642;DHT22;41509;53.108;6.100;2023-03-05T02:25:33;3.60;99.90
55642;DHT22;41509;53.108;6.100;2023-03-05T02:28:07;3.60;99.90
55642;DHT22;41509;53.108;6.100;2023-03-05T02:30:34;3.70;99.90
55642;DHT22;41509;53.108;6.100;2023-03-05T02:33:00;3.60;99.90
55642;DHT22;41509;53.108;6.100;2023-03-05T02:35:26;3.60;99.90
55642;DHT22;41509;53.108;6.100;2023-03-05T02:37:52;3.60;99.90
55642;DHT22;41509;53.108;6.100;2023-03-05T02:40:17;3.60;99.90
55642;DHT22;41509;53.108;6.100;2023-03-05T02:42:43;3.60;99.90
55642;DHT22;41509;53.108;6.100;2023-03-05T02:45:10;3.60;99.90
55642;DHT22;41509;53.108;6.100;2023-03-05T02:47:36;3.60;99.90
55642;DHT22;41509;53.108;6.100;2023-03-05T02:50:04;3.60;99.90
55642;DHT22;41509;53.108;6.100;2023-03-05T02:52:30;3.60;99.90
55642;DHT22;41509;53.108;6.100;2023-03-05T02:54:56;3.60;99.90
55642;DHT22;41509;53.108;6.100;2023-03-05T02:57:22;3.60;99.90
55642;DHT22;41509;53.108;6.100;2023-03-05T02:59:47;3.60;99.90
55642;DHT22;41509;53.108;6.100;2023-03-05T03:02:13;3.60;99.90
55642;DHT22;41509;53.108;6.100;2023-03-05T03:04:39;3.60;99.90
55642;DHT22;41509;53.108;6.100;2023-03-05T03:07:05;3.60;99.90
55642;DHT22;41509;53.108;6.100;2023-03-05T03:09:33;3.60;99.90
55642;DHT22;41509;53.108;6.100;2023-03-05T03:12:00;3.60;99.90
55642;DHT22;41509;53.108;6.100;2023-03-05T03:14:26;3.60;99.90
55642;DHT22;41509;53.108;6.100;2023-03-05T03:16:51;3.50;99.90
55642;DHT22;41509;53.108;6.100;2023-03-05T03:19:17;3.50;99.90
55642;DHT22;41509;53.108;6.100;2023-03-05T03:21:43;3.50;99.90
55642;DHT22;41509;53.108;6.100;2023-03-05T03:24:08;3.50;99.90
55642;DHT22;41509;53.108;6.100;2023-03-05T03:26:34;3.50;99.90
55642;DHT22;41509;53.108;6.100;2023-03-05T03:28:59;3.40;99.90
55642;DHT22;41509;53.108;6.100;2023-03-05T03:31:25;3.40;99.90
55642;DHT22;41509;53.108;6.100;2023-03-05T03:33:51;3.30;99.90
55642;DHT22;41509;53.108;6.100;2023-03-05T03:36:17;3.40;99.90
55642;DHT22;41509;53.108;6.100;2023-03-05T03:38:42;3.40;99.90
55642;DHT22;41509;53.108;6.100;2023-03-05T03:41:08;3.40;99.90
55642;DHT22;41509;53.108;6.100;2023-03-05T03:43:35;3.40;99.90
55642;DHT22;41509;53.108;6.100;2023-03-05T03:46:03;3.40;99.90
55642;DHT22;41509;53.108;6.100;2023-03-05T03:48:29;3.40;99.90
55642;DHT22;41509;53.108;6.100;2023-03-05T03:50:55;3.40;99.90
55642;DHT22;41509;53.108;6.100;2023-03-05T03:53:20;3.50;99.90
55642;DHT22;41509;53.108;6.100;2023-03-05T03:55:46;3.40;99.90
55642;DHT22;41509;53.108;6.100;2023-03-05T03:58:11;3.40;99.90
55642;DHT22;41509;53.108;6.100;2023-03-05T04:00:38;3.40;99.90
55642;DHT22;41509;53.108;6.100;2023-03-05T04:03:04;3.40;99.90
55642;DHT22;41509;53.108;6.100;2023-03-05T04:05:29;3.40;99.90
55642;DHT22;41509;53.108;6.100;2023-03-05T04:07:55;3.50;99.90
55642;DHT22;41509;53.108;6.100;2023-03-05T04:10:23;3.50;99.90
55642;DHT22;41509;53.108;6.100;2023-03-05T04:12:49;3.50;99.90
55642;DHT22;41509;53.108;6.100;2023-03-05T04:15:14;3.40;99.90
55642;DHT22;41509;53.108;6.100;2023-03-05T04:17:40;3.50;99.90
55642;DHT22;41509;53.108;6.100;2023-03-05T04:20:06;3.50;99.90
55642;DHT22;41509;53.108;6.100;2023-03-05T04:22:35;3.50;99.90
55642;DHT22;41509;53.108;6.100;2023-03-05T04:25:02;3.50;99.90
55642;DHT22;41509;53.108;6.100;2023-03-05T04:27:31;3.50;99.90
55642;DHT22;41509;53.108;6.100;2023-03-05T04:29:59;3.50;99.90
55642;DHT22;41509;53.108;6.100;2023-03-05T04:32:24;3.40;99.90
55642;DHT22;41509;53.108;6.100;2023-03-05T04:34:50;3.50;99.90
55642;DHT22;41509;53.108;6.100;2023-03-05T04:37:16;3.50;99.90
55642;DHT22;41509;53.108;6.100;2023-03-05T04:39:41;3.40;99.90
55642;DHT22;41509;53.108;6.100;2023-03-05T04:42:08;3.40;99.90
55642;DHT22;41509;53.108;6.100;2023-03-05T04:44:35;3.40;99.90
55642;DHT22;41509;53.108;6.100;2023-03-05T04:47:00;3.40;99.90
55642;DHT22;41509;53.108;6.100;2023-03-05T04:49:26;3.40;99.90
55642;DHT22;41509;53.108;6.100;2023-03-05T04:51:52;3.40;99.90
55642;DHT22;41509;53.108;6.100;2023-03-05T04:54:17;3.40;99.90
55642;DHT22;41509;53.108;6.100;2023-03-05T04:56:43;3.40;99.90
55642;DHT22;41509;53.108;6.100;2023-03-05T04:59:09;3.40;99.90
55642;DHT22;41509;53.108;6.100;2023-03-05T05:01:35;3.50;99.90
55642;DHT22;41509;53.108;6.100;2023-03-05T05:04:00;3.40;99.90
55642;DHT22;41509;53.108;6.100;2023-03-05T05:06:26;3.40;99.90
55642;DHT22;41509;53.108;6.100;2023-03-05T05:08:52;3.40;99.90
55642;DHT22;41509;53.108;6.100;2023-03-05T05:11:18;3.50;99.90
55642;DHT22;41509;53.108;6.100;2023-03-05T05:13:43;3.40;99.90
55642;DHT22;41509;53.108;6.100;2023-03-05T05:16:09;3.40;99.90
55642;DHT22;41509;53.108;6.100;2023-03-05T05:18:35;3.50;99.90
55642;DHT22;41509;53.108;6.100;2023-03-05T05:21:00;3.50;99.90
55642;DHT22;41509;53.108;6.100;2023-03-05T05:23:26;3.50;99.90
55642;DHT22;41509;53.108;6.100;2023-03-05T05:25:56;3.50;99.90
55642;DHT22;41509;53.108;6.100;2023-03-05T05:28:22;3.50;99.90
55642;DHT22;41509;53.108;6.100;2023-03-05T05:30:48;3.50;99.90
55642;DHT22;41509;53.108;6.100;2023-03-05T05:33:13;3.60;99.90
55642;DHT22;41509;53.108;6.100;2023-03-05T05:35:39;3.50;99.90
55642;DHT22;41509;53.108;6.100;2023-03-05T05:38:04;3.50;99.90
55642;DHT22;41509;53.108;6.100;2023-03-05T05:40:30;3.60;99.90
55642;DHT22;41509;53.108;6.100;2023-03-05T05:42:56;3.50;99.90
55642;DHT22;41509;53.108;6.100;2023-03-05T05:45:21;3.40;99.90
55642;DHT22;41509;53.108;6.100;2023-03-05T05:47:47;3.50;99.90
55642;DHT22;41509;53.108;6.100;2023-03-05T05:50:13;3.50;99.90
55642;DHT22;41509;53.108;6.100;2023-03-05T05:52:39;3.40;99.90
55642;DHT22;41509;53.108;6.100;2023-03-05T05:55:05;3.40;99.90
55642;DHT22;41509;53.108;6.100;2023-03-05T05:57:31;3.30;99.90
55642;DHT22;41509;53.108;6.100;2023-03-05T05:59:58;3.30;99.90
55642;DHT22;41509;53.108;6.100;2023-03-05T06:02:23;3.30;99.90
55642;DHT22;41509;53.108;6.100;2023-03-05T06:04:49;3.30;99.90
55642;DHT22;41509;53.108;6.100;2023-03-05T06:07:14;3.20;99.90
55642;DHT22;41509;53.108;6.100;2023-03-05T06:09:40;3.20;99.90
55642;DHT22;41509;53.108;6.100;2023-03-05T06:12:06;3.20;99.90
55642;DHT22;41509;53.108;6.100;2023-03-05T06:14:32;3.10;99.90
55642;DHT22;41509;53.108;6.100;2023-03-05T06:16:57;3.10;99.90
55642;DHT22;41509;53.108;6.100;2023-03-05T06:19:23;3.10;99.90
55642;DHT22;41509;53.108;6.100;2023-03-05T06:21:49;3.10;99.90
55642;DHT22;41509;53.108;6.100;2023-03-05T06:24:14;3.00;99.90
55642;DHT22;41509;53.108;6.100;2023-03-05T06:26:40;3.00;99.90
55642;DHT22;41509;53.108;6.100;2023-03-05T06:29:05;3.00;99.90
55642;DHT22;41509;53.108;6.100;2023-03-05T06:31:31;3.00;99.90
55642;DHT22;41509;53.108;6.100;2023-03-05T06:33:59;3.00;99.90
55642;DHT22;41509;53.108;6.100;2023-03-05T06:36:28;3.00;99.90
55642;DHT22;41509;53.108;6.100;2023-03-05T06:38:54;3.00;99.90
55642;DHT22;41509;53.108;6.100;2023-03-05T06:41:23;2.90;99.90
55642;DHT22;41509;53.108;6.100;2023-03-05T06:43:49;3.00;99.90
55642;DHT22;41509;53.108;6.100;2023-03-05T06:46:20;3.00;99.90
55642;DHT22;41509;53.108;6.100;2023-03-05T06:48:47;2.90;99.90
55642;DHT22;41509;53.108;6.100;2023-03-05T06:51:15;2.90;99.90
55642;DHT22;41509;53.108;6.100;2023-03-05T06:53:42;2.90;99.90
55642;DHT22;41509;53.108;6.100;2023-03-05T06:56:08;2.90;99.90
55642;DHT22;41509;53.108;6.100;2023-03-05T06:58:34;2.90;99.90
55642;DHT22;41509;53.108;6.100;2023-03-05T07:01:00;3.00;99.90
55642;DHT22;41509;53.108;6.100;2023-03-05T07:03:26;3.00;99.90
55642;DHT22;41509;53.108;6.100;2023-03-05T07:05:51;2.90;99.90
55642;DHT22;41509;53.108;6.100;2023-03-05T07:08:17;3.00;99.90
55642;DHT22;41509;53.108;6.100;2023-03-05T07:10:43;3.00;99.90
55642;DHT22;41509;53.108;6.100;2023-03-05T07:13:09;3.00;99.90
55642;DHT22;41509;53.108;6.100;2023-03-05T07:15:37;3.00;99.90
55642;DHT22;41509;53.108;6.100;2023-03-05T07:18:03;3.10;99.90
55642;DHT22;41509;53.108;6.100;2023-03-05T07:20:29;3.10;99.90
55642;DHT22;41509;53.108;6.100;2023-03-05T07:22:55;3.10;99.90
55642;DHT22;41509;53.108;6.100;2023-03-05T07:25:20;3.10;99.90
55642;DHT22;41509;53.108;6.100;2023-03-05T07:27:47;3.10;99.90
55642;DHT22;41509;53.108;6.100;2023-03-05T07:30:13;3.20;99.90
55642;DHT22;41509;53.108;6.100;2023-03-05T07:32:38;3.20;99.90
55642;DHT22;41509;53.108;6.100;2023-03-05T07:35:04;3.20;99.90
55642;DHT22;41509;53.108;6.100;2023-03-05T07:37:30;3.20;99.90
55642;DHT22;41509;53.108;6.100;2023-03-05T07:39:56;3.30;99.90
55642;DHT22;41509;53.108;6.100;2023-03-05T07:42:22;3.30;99.90
55642;DHT22;41509;53.108;6.100;2023-03-05T07:44:47;3.30;99.90
55642;DHT22;41509;53.108;6.100;2023-03-05T07:47:13;3.40;99.90
55642;DHT22;41509;53.108;6.100;2023-03-05T07:49:39;3.40;99.90
55642;DHT22;41509;53.108;6.100;2023-03-05T07:52:06;3.40;99.90
55642;DHT22;41509;53.108;6.100;2023-03-05T07:54:32;3.40;99.90
55642;DHT22;41509;53.108;6.100;2023-03-05T07:57:03;3.50;99.90
55642;DHT22;41509;53.108;6.100;2023-03-05T07:59:29;3.50;99.90
55642;DHT22;41509;53.108;6.100;2023-03-05T08:01:55;3.50;99.90
55642;DHT22;41509;53.108;6.100;2023-03-05T08:04:20;3.60;99.90
55642;DHT22;41509;53.108;6.100;2023-03-05T08:06:46;3.60;99.90
55642;DHT22;41509;53.108;6.100;2023-03-05T08:09:12;3.60;99.90
55642;DHT22;41509;53.108;6.100;2023-03-05T08:11:41;3.70;99.90
55642;DHT22;41509;53.108;6.100;2023-03-05T08:14:07;3.80;99.90
55642;DHT22;41509;53.108;6.100;2023-03-05T08:16:33;3.80;99.90
55642;DHT22;41509;53.108;6.100;2023-03-05T08:18:58;3.90;99.90
55642;DHT22;41509;53.108;6.100;2023-03-05T08:21:32;4.00;99.90
55642;DHT22;41509;53.108;6.100;2023-03-05T08:24:00;4.00;99.90
55642;DHT22;41509;53.108;6.100;2023-03-05T08:26:28;4.10;99.90
55642;DHT22;41509;53.108;6.100;2023-03-05T08:28:54;4.10;99.90
55642;DHT22;41509;53.108;6.100;2023-03-05T08:31:22;4.30;99.90
55642;DHT22;41509;53.108;6.100;2023-03-05T08:33:49;4.30;99.90
55642;DHT22;41509;53.108;6.100;2023-03-05T08:36:15;4.40;99.90
55642;DHT22;41509;53.108;6.100;2023-03-05T08:38:41;4.40;99.90
55642;DHT22;41509;53.108;6.100;2023-03-05T08:41:07;4.50;99.90
55642;DHT22;41509;53.108;6.100;2023-03-05T08:43:33;4.60;99.90
55642;DHT22;41509;53.108;6.100;2023-03-05T08:46:00;4.70;99.90
55642;DHT22;41509;53.108;6.100;2023-03-05T08:48:26;4.80;99.90
55642;DHT22;41509;53.108;6.100;2023-03-05T08:50:52;4.80;99.90
55642;DHT22;41509;53.108;6.100;2023-03-05T08:53:18;4.90;99.90
55642;DHT22;41509;53.108;6.100;2023-03-05T08:55:56;4.90;99.90
55642;DHT22;41509;53.108;6.100;2023-03-05T08:58:22;5.00;99.90
55642;DHT22;41509;53.108;6.100;2023-03-05T09:00:51;5.10;99.90
55642;DHT22;41509;53.108;6.100;2023-03-05T09:03:17;5.20;99.90
55642;DHT22;41509;53.108;6.100;2023-03-05T09:05:42;5.20;99.90
55642;DHT22;41509;53.108;6.100;2023-03-05T09:08:08;5.20;99.90
55642;DHT22;41509;53.108;6.100;2023-03-05T09:10:33;5.40;99.90
55642;DHT22;41509;53.108;6.100;2023-03-05T09:12:59;5.30;99.90
55642;DHT22;41509;53.108;6.100;2023-03-05T09:15:25;5.40;99.90
55642;DHT22;41509;53.108;6.100;2023-03-05T09:17:50;5.50;99.90
55642;DHT22;41509;53.108;6.100;2023-03-05T09:20:16;5.60;99.90
55642;DHT22;41509;53.108;6.100;2023-03-05T09:22:42;5.60;99.90
55642;DHT22;41509;53.108;6.100;2023-03-05T09:25:10;5.70;99.90
55642;DHT22;41509;53.108;6.100;2023-03-05T09:27:37;5.70;99.90
55642;DHT22;41509;53.108;6.100;2023-03-05T09:30:04;5.80;99.90
55642;DHT22;41509;53.108;6.100;2023-03-05T09:32:30;5.80;99.90
55642;DHT22;41509;53.108;6.100;2023-03-05T09:34:56;5.90;99.90
55642;DHT22;41509;53.108;6.100;2023-03-05T09:37:25;6.10;99.90
55642;DHT22;41509;53.108;6.100;2023-03-05T09:39:51;6.30;99.90
55642;DHT22;41509;53.108;6.100;2023-03-05T09:42:25;6.30;99.90
55642;DHT22;41509;53.108;6.100;2023-03-05T09:45:04;6.30;99.90
55642;DHT22;41509;53.108;6.100;2023-03-05T09:53:03;6.30;99.90
55642;DHT22;41509;53.108;6.100;2023-03-05T09:55:47;6.30;99.90
55642;DHT22;41509;53.108;6.100;2023-03-05T09:58:21;6.20;99.90
55642;DHT22;41509;53.108;6.100;2023-03-05T10:00:59;6.20;99.90
55642;DHT22;41509;53.108;6.100;2023-03-05T10:03:29;6.20;99.90
55642;DHT22;41509;53.108;6.100;2023-03-05T10:06:04;6.10;99.90
55642;DHT22;41509;53.108;6.100;2023-03-05T10:14:37;6.20;99.90
55642;DHT22;41509;53.108;6.100;2023-03-05T10:28:46;6.70;99.90
55642;DHT22;41509;53.108;6.100;2023-03-05T10:37:07;6.50;99.90
55642;DHT22;41509;53.108;6.100;2023-03-05T10:39:56;6.60;99.90
55642;DHT22;41509;53.108;6.100;2023-03-05T10:42:46;6.70;99.90
55642;DHT22;41509;53.108;6.100;2023-03-05T10:45:26;6.90;99.90
55642;DHT22;41509;53.108;6.100;2023-03-05T10:50:25;7.20;99.90
55642;DHT22;41509;53.108;6.100;2023-03-05T10:53:20;7.30;99.90
55642;DHT22;41509;53.108;6.100;2023-03-05T10:55:47;7.50;99.90
55642;DHT22;41509;53.108;6.100;2023-03-05T10:58:18;7.60;99.90
55642;DHT22;41509;53.108;6.100;2023-03-05T11:06:11;8.00;99.90
55642;DHT22;41509;53.108;6.100;2023-03-05T11:08:38;7.90;99.90
55642;DHT22;41509;53.108;6.100;2023-03-05T11:11:13;7.70;99.90
55642;DHT22;41509;53.108;6.100;2023-03-05T11:16:19;7.20;99.90
55642;DHT22;41509;53.108;6.100;2023-03-05T11:18:47;7.10;99.90
55642;DHT22;41509;53.108;6.100;2023-03-05T11:21:22;7.00;99.90
55642;DHT22;41509;53.108;6.100;2023-03-05T11:24:19;7.20;99.90
55642;DHT22;41509;53.108;6.100;2023-03-05T11:26:53;7.40;99.90
55642;DHT22;41509;53.108;6.100;2023-03-05T11:29:23;7.60;99.90
55642;DHT22;41509;53.108;6.100;2023-03-05T11:31:50;7.80;99.90
55642;DHT22;41509;53.108;6.100;2023-03-05T11:39:22;8.20;99.90
55642;DHT22;41509;53.108;6.100;2023-03-05T11:41:56;8.30;99.90
55642;DHT22;41509;53.108;6.100;2023-03-05T11:44:49;8.30;99.90
55642;DHT22;41509;53.108;6.100;2023-03-05T11:47:32;8.30;99.90
55642;DHT22;41509;53.108;6.100;2023-03-05T11:50:27;8.40;99.90
55642;DHT22;41509;53.108;6.100;2023-03-05T11:52:59;8.40;99.90
55642;DHT22;41509;53.108;6.100;2023-03-05T11:55:39;8.40;99.90
55642;DHT22;41509;53.108;6.100;2023-03-05T12:00:52;8.20;99.90
55642;DHT22;41509;53.108;6.100;2023-03-05T12:03:24;8.30;99.90
55642;DHT22;41509;53.108;6.100;2023-03-05T12:08:41;8.00;99.90
55642;DHT22;41509;53.108;6.100;2023-03-05T12:11:18;7.90;99.90
55642;DHT22;41509;53.108;6.100;2023-03-05T12:13:51;7.80;99.90
55642;DHT22;41509;53.108;6.100;2023-03-05T12:16:54;7.70;99.90
55642;DHT22;41509;53.108;6.100;2023-03-05T12:19:27;7.70;99.90
55642;DHT22;41509;53.108;6.100;2023-03-05T12:21:58;7.70;99.90
55642;DHT22;41509;53.108;6.100;2023-03-05T12:29:50;7.80;99.90
55642;DHT22;41509;53.108;6.100;2023-03-05T12:35:30;7.60;99.90
55642;DHT22;41509;53.108;6.100;2023-03-05T12:37:58;7.50;99.90
55642;DHT22;41509;53.108;6.100;2023-03-05T12:40:32;7.50;99.90
55642;DHT22;41509;53.108;6.100;2023-03-05T12:43:03;7.40;99.90
55642;DHT22;41509;53.108;6.100;2023-03-05T12:45:39;7.40;99.90
55642;DHT22;41509;53.108;6.100;2023-03-05T12:53:16;7.70;99.90
55642;DHT22;41509;53.108;6.100;2023-03-05T13:03:56;7.90;99.90
55642;DHT22;41509;53.108;6.100;2023-03-05T13:09:02;7.70;99.90
55642;DHT22;41509;53.108;6.100;2023-03-05T13:11:31;7.60;99.90
55642;DHT22;41509;53.108;6.100;2023-03-05T13:13:59;7.60;99.90
55642;DHT22;41509;53.108;6.100;2023-03-05T13:16:35;7.50;99.90
55642;DHT22;41509;53.108;6.100;2023-03-05T13:19:11;7.50;99.90
55642;DHT22;41509;53.108;6.100;2023-03-05T13:21:39;7.50;99.90
55642;DHT22;41509;53.108;6.100;2023-03-05T13:24:18;7.60;99.90
55642;DHT22;41509;53.108;6.100;2023-03-05T13:26:44;7.60;99.90
55642;DHT22;41509;53.108;6.100;2023-03-05T13:29:14;7.60;99.90
55642;DHT22;41509;53.108;6.100;2023-03-05T13:34:21;7.50;99.90
55642;DHT22;41509;53.108;6.100;2023-03-05T13:37:00;7.50;99.90
55642;DHT22;41509;53.108;6.100;2023-03-05T13:42:19;7.50;99.90
55642;DHT22;41509;53.108;6.100;2023-03-05T13:45:00;7.50;99.90
55642;DHT22;41509;53.108;6.100;2023-03-05T13:47:34;7.40;99.90
55642;DHT22;41509;53.108;6.100;2023-03-05T13:50:06;7.40;99.90
55642;DHT22;41509;53.108;6.100;2023-03-05T13:52:34;7.40;99.90
55642;DHT22;41509;53.108;6.100;2023-03-05T13:55:03;7.50;99.90
55642;DHT22;41509;53.108;6.100;2023-03-05T13:57:40;7.60;99.90
55642;DHT22;41509;53.108;6.100;2023-03-05T14:02:52;7.80;99.90
55642;DHT22;41509;53.108;6.100;2023-03-05T14:05:21;7.80;99.90
55642;DHT22;41509;53.108;6.100;2023-03-05T14:07:50;7.70;99.90
55642;DHT22;41509;53.108;6.100;2023-03-05T14:12:56;7.60;99.90
55642;DHT22;41509;53.108;6.100;2023-03-05T14:15:26;7.50;99.90
55642;DHT22;41509;53.108;6.100;2023-03-05T14:18:06;7.50;99.90
55642;DHT22;41509;53.108;6.100;2023-03-05T14:20:32;7.40;99.90
55642;DHT22;41509;53.108;6.100;2023-03-05T14:22:59;7.30;99.90
55642;DHT22;41509;53.108;6.100;2023-03-05T14:25:34;7.20;99.90
55642;DHT22;41509;53.108;6.100;2023-03-05T14:30:46;7.20;99.90
55642;DHT22;41509;53.108;6.100;2023-03-05T14:33:21;7.20;99.90
55642;DHT22;41509;53.108;6.100;2023-03-05T14:35:49;7.20;99.90
55642;DHT22;41509;53.108;6.100;2023-03-05T14:38:38;7.30;99.90
55642;DHT22;41509;53.108;6.100;2023-03-05T14:41:20;7.30;99.90
55642;DHT22;41509;53.108;6.100;2023-03-05T14:43:47;7.40;99.90
55642;DHT22;41509;53.108;6.100;2023-03-05T14:46:12;7.40;99.90
55642;DHT22;41509;53.108;6.100;2023-03-05T14:48:38;7.30;99.90
55642;DHT22;41509;53.108;6.100;2023-03-05T14:51:06;7.30;99.90
55642;DHT22;41509;53.108;6.100;2023-03-05T14:53:43;7.30;99.90
55642;DHT22;41509;53.108;6.100;2023-03-05T14:58:42;7.30;99.90
55642;DHT22;41509;53.108;6.100;2023-03-05T15:01:12;7.30;99.90
55642;DHT22;41509;53.108;6.100;2023-03-05T15:03:38;7.30;99.90
55642;DHT22;41509;53.108;6.100;2023-03-05T15:06:11;7.40;99.90
55642;DHT22;41509;53.108;6.100;2023-03-05T15:08:40;7.40;99.90
55642;DHT22;41509;53.108;6.100;2023-03-05T15:11:06;7.40;99.90
55642;DHT22;41509;53.108;6.100;2023-03-05T15:13:32;7.40;99.90
55642;DHT22;41509;53.108;6.100;2023-03-05T15:15:59;7.40;99.90
55642;DHT22;41509;53.108;6.100;2023-03-05T15:18:27;7.60;99.90
55642;DHT22;41509;53.108;6.100;2023-03-05T15:20:54;7.40;99.90
55642;DHT22;41509;53.108;6.100;2023-03-05T15:23:21;7.40;99.90
55642;DHT22;41509;53.108;6.100;2023-03-05T15:25:47;7.40;99.90
55642;DHT22;41509;53.108;6.100;2023-03-05T15:28:13;7.30;99.90
55642;DHT22;41509;53.108;6.100;2023-03-05T15:30:42;7.20;99.90
55642;DHT22;41509;53.108;6.100;2023-03-05T15:33:13;7.20;99.90
55642;DHT22;41509;53.108;6.100;2023-03-05T15:35:40;7.20;99.90
55642;DHT22;41509;53.108;6.100;2023-03-05T15:38:09;7.20;99.90
55642;DHT22;41509;53.108;6.100;2023-03-05T15:40:35;7.20;99.90
55642;DHT22;41509;53.108;6.100;2023-03-05T15:43:00;7.20;99.90
55642;DHT22;41509;53.108;6.100;2023-03-05T15:45:26;7.10;99.90
55642;DHT22;41509;53.108;6.100;2023-03-05T15:47:55;7.00;99.90
55642;DHT22;41509;53.108;6.100;2023-03-05T15:50:21;7.00;99.90
55642;DHT22;41509;53.108;6.100;2023-03-05T15:52:47;6.90;99.90
55642;DHT22;41509;53.108;6.100;2023-03-05T15:55:13;6.80;99.90
55642;DHT22;41509;53.108;6.100;2023-03-05T15:57:42;6.80;99.90
55642;DHT22;41509;53.108;6.100;2023-03-05T16:00:09;6.80;99.90
55642;DHT22;41509;53.108;6.100;2023-03-05T16:02:36;6.70;99.90
55642;DHT22;41509;53.108;6.100;2023-03-05T16:05:04;6.60;99.90
55642;DHT22;41509;53.108;6.100;2023-03-05T16:07:33;6.60;99.90
55642;DHT22;41509;53.108;6.100;2023-03-05T16:10:01;6.50;99.90
55642;DHT22;41509;53.108;6.100;2023-03-05T16:12:31;6.50;99.90
55642;DHT22;41509;53.108;6.100;2023-03-05T16:14:57;6.50;99.90
55642;DHT22;41509;53.108;6.100;2023-03-05T16:17:24;6.40;99.90
55642;DHT22;41509;53.108;6.100;2023-03-05T16:19:53;6.40;99.90
55642;DHT22;41509;53.108;6.100;2023-03-05T16:22:19;6.40;99.90
55642;DHT22;41509;53.108;6.100;2023-03-05T16:24:45;6.30;99.90
55642;DHT22;41509;53.108;6.100;2023-03-05T16:27:11;6.30;99.90
55642;DHT22;41509;53.108;6.100;2023-03-05T16:29:37;6.30;99.90
55642;DHT22;41509;53.108;6.100;2023-03-05T16:32:03;6.30;99.90
55642;DHT22;41509;53.108;6.100;2023-03-05T16:34:32;6.30;99.90
55642;DHT22;41509;53.108;6.100;2023-03-05T16:36:59;6.30;99.90
55642;DHT22;41509;53.108;6.100;2023-03-05T16:39:25;6.30;99.90
55642;DHT22;41509;53.108;6.100;2023-03-05T16:41:52;6.20;99.90
55642;DHT22;41509;53.108;6.100;2023-03-05T16:44:18;6.20;99.90
55642;DHT22;41509;53.108;6.100;2023-03-05T16:46:44;6.10;99.90
55642;DHT22;41509;53.108;6.100;2023-03-05T16:49:15;6.00;99.90
55642;DHT22;41509;53.108;6.100;2023-03-05T16:51:41;6.00;99.90
55642;DHT22;41509;53.108;6.100;2023-03-05T16:56:35;5.90;99.90
55642;DHT22;41509;53.108;6.100;2023-03-05T16:59:00;5.90;99.90
55642;DHT22;41509;53.108;6.100;2023-03-05T17:01:26;5.80;99.90
55642;DHT22;41509;53.108;6.100;2023-03-05T17:03:56;5.80;99.90
55642;DHT22;41509;53.108;6.100;2023-03-05T17:06:25;5.70;99.90
55642;DHT22;41509;53.108;6.100;2023-03-05T17:08:55;5.70;99.90
55642;DHT22;41509;53.108;6.100;2023-03-05T17:11:21;5.60;99.90
55642;DHT22;41509;53.108;6.100;2023-03-05T17:13:47;5.60;99.90
55642;DHT22;41509;53.108;6.100;2023-03-05T17:16:14;5.50;99.90
55642;DHT22;41509;53.108;6.100;2023-03-05T17:18:40;5.50;99.90
55642;DHT22;41509;53.108;6.100;2023-03-05T17:21:07;5.40;99.90
55642;DHT22;41509;53.108;6.100;2023-03-05T17:23:34;5.40;99.90
55642;DHT22;41509;53.108;6.100;2023-03-05T17:26:12;5.30;99.90